sensor_id;sensor_type;location;lat;lon;timestamp;pressure;altitude;pressure_sealevel;temperature
10598;BMP180;5346;48.766;8.674;2023-01-30T00:00:12;94345.00;;;-6.20
10598;BMP180;5346;48.766;8.674;2023-01-30T00:02:46;94343.00;;;-6.40
10598;BMP180;5346;48.766;8.674;2023-01-30T00:05:13;94343.00;;;-6.30
10598;BMP180;5346;48.766;8.674;2023-01-30T00:07:53;94330.00;;;-6.30
10598;BMP180;5346;48.766;8.674;2023-01-30T00:10:20;94331.00;;;-6.30
10598;BMP180;5346;48.766;8.674;2023-01-30T00:12:53;94315.00;;;-6.30
10598;BMP180;5346;48.766;8.674;2023-01-30T00:15:20;94315.00;;;-6.40
10598;BMP180;5346;48.766;8.674;2023-01-30T00:17:53;94311.00;;;-6.40
10598;BMP180;5346;48.766;8.674;2023-01-30T00:20:26;94310.00;;;-6.40
10598;BMP180;5346;48.766;8.674;2023-01-30T00:22:54;94309.00;;;-6.40
10598;BMP180;5346;48.766;8.674;2023-01-30T00:25:29;94301.00;;;-6.40
10598;BMP180;5346;48.766;8.674;2023-01-30T00:28:03;94304.00;;;-6.40
10598;BMP180;5346;48.766;8.674;2023-01-30T00:30:30;94303.00;;;-6.30
10598;BMP180;5346;48.766;8.674;2023-01-30T00:33:04;94299.00;;;-6.40
10598;BMP180;5346;48.766;8.674;2023-01-30T00:35:31;94282.00;;;-6.40
10598;BMP180;5346;48.766;8.674;2023-01-30T00:38:05;94229.00;;;-6.40
10598;BMP180;5346;48.766;8.674;2023-01-30T00:40:32;94281.00;;;-6.40
10598;BMP180;5346;48.766;8.674;2023-01-30T00:43:05;94287.00;;;-6.20
10598;BMP180;5346;48.766;8.674;2023-01-30T00:45:59;94297.00;;;-6.30
10598;BMP180;5346;48.766;8.674;2023-01-30T00:48:45;94327.00;;;-6.30
10598;BMP180;5346;48.766;8.674;2023-01-30T00:51:19;94316.00;;;-6.30
10598;BMP180;5346;48.766;8.674;2023-01-30T00:53:45;94329.00;;;-6.30
10598;BMP180;5346;48.766;8.674;2023-01-30T00:56:19;94343.00;;;-6.30
10598;BMP180;5346;48.766;8.674;2023-01-30T00:58:52;94342.00;;;-6.00
10598;BMP180;5346;48.766;8.674;2023-01-30T01:01:21;94361.00;;;-5.70
10598;BMP180;5346;48.766;8.674;2023-01-30T01:03:56;94377.00;;;-5.60
10598;BMP180;5346;48.766;8.674;2023-01-30T01:06:37;94352.00;;;-5.60
10598;BMP180;5346;48.766;8.674;2023-01-30T01:09:05;94366.00;;;-5.30
10598;BMP180;5346;48.766;8.674;2023-01-30T01:11:39;94321.00;;;-5.00
10598;BMP180;5346;48.766;8.674;2023-01-30T01:14:06;94325.00;;;-4.90
10598;BMP180;5346;48.766;8.674;2023-01-30T01:16:35;94363.00;;;-4.70
10598;BMP180;5346;48.766;8.674;2023-01-30T01:19:09;94368.00;;;-4.70
10598;BMP180;5346;48.766;8.674;2023-01-30T01:21:43;94345.00;;;-4.80
10598;BMP180;5346;48.766;8.674;2023-01-30T01:24:14;94359.00;;;-4.60
10598;BMP180;5346;48.766;8.674;2023-01-30T01:26:48;94333.00;;;-4.60
10598;BMP180;5346;48.766;8.674;2023-01-30T01:29:21;94354.00;;;-4.60
10598;BMP180;5346;48.766;8.674;2023-01-30T01:31:48;94344.00;;;-4.70
10598;BMP180;5346;48.766;8.674;2023-01-30T01:34:22;94323.00;;;-4.50
10598;BMP180;5346;48.766;8.674;2023-01-30T01:36:56;94315.00;;;-4.30
10598;BMP180;5346;48.766;8.674;2023-01-30T01:39:23;94318.00;;;-4.10
10598;BMP180;5346;48.766;8.674;2023-01-30T01:41:56;94328.00;;;-4.30
10598;BMP180;5346;48.766;8.674;2023-01-30T01:44:24;94327.00;;;-4.30
10598;BMP180;5346;48.766;8.674;2023-01-30T01:46:58;94334.00;;;-4.20
10598;BMP180;5346;48.766;8.674;2023-01-30T01:49:31;94321.00;;;-4.30
10598;BMP180;5346;48.766;8.674;2023-01-30T01:52:14;94315.00;;;-4.10
10598;BMP180;5346;48.766;8.674;2023-01-30T01:54:59;94316.00;;;-4.20
10598;BMP180;5346;48.766;8.674;2023-01-30T01:57:59;94336.00;;;-4.10
10598;BMP180;5346;48.766;8.674;2023-01-30T02:00:28;94347.00;;;-4.20
10598;BMP180;5346;48.766;8.674;2023-01-30T02:03:07;94365.00;;;-4.30
10598;BMP180;5346;48.766;8.674;2023-01-30T02:06:00;94284.00;;;-4.30
10598;BMP180;5346;48.766;8.674;2023-01-30T02:08:49;94319.00;;;-4.30
10598;BMP180;5346;48.766;8.674;2023-01-30T02:11:41;94332.00;;;-4.30
10598;BMP180;5346;48.766;8.674;2023-01-30T02:14:19;94303.00;;;-4.20
10598;BMP180;5346;48.766;8.674;2023-01-30T02:16:46;94298.00;;;-4.30
10598;BMP180;5346;48.766;8.674;2023-01-30T02:20:00;94261.00;;;-4.20
10598;BMP180;5346;48.766;8.674;2023-01-30T02:38:52;94306.00;;;-4.60
10598;BMP180;5346;48.766;8.674;2023-01-30T02:41:55;94285.00;;;-4.80
10598;BMP180;5346;48.766;8.674;2023-01-30T02:44:58;94308.00;;;-4.80
10598;BMP180;5346;48.766;8.674;2023-01-30T02:48:00;94303.00;;;-4.70
10598;BMP180;5346;48.766;8.674;2023-01-30T02:51:09;94320.00;;;-4.80
10598;BMP180;5346;48.766;8.674;2023-01-30T02:53:47;94262.00;;;-5.00
10598;BMP180;5346;48.766;8.674;2023-01-30T02:56:21;94305.00;;;-4.80
10598;BMP180;5346;48.766;8.674;2023-01-30T02:59:01;94295.00;;;-4.40
10598;BMP180;5346;48.766;8.674;2023-01-30T03:02:01;94300.00;;;-4.40
10598;BMP180;5346;48.766;8.674;2023-01-30T03:04:57;94290.00;;;-4.40
10598;BMP180;5346;48.766;8.674;2023-01-30T03:08:09;94270.00;;;-4.40
10598;BMP180;5346;48.766;8.674;2023-01-30T03:11:03;94267.00;;;-4.30
10598;BMP180;5346;48.766;8.674;2023-01-30T03:16:30;94244.00;;;-4.20
10598;BMP180;5346;48.766;8.674;2023-01-30T03:19:10;94239.00;;;-4.20
10598;BMP180;5346;48.766;8.674;2023-01-30T03:21:45;94162.00;;;-4.10
10598;BMP180;5346;48.766;8.674;2023-01-30T03:24:19;94203.00;;;-4.10
10598;BMP180;5346;48.766;8.674;2023-01-30T03:27:13;94187.00;;;-4.10
10598;BMP180;5346;48.766;8.674;2023-01-30T03:29:46;94145.00;;;-4.20
10598;BMP180;5346;48.766;8.674;2023-01-30T03:32:13;94187.00;;;-4.10
10598;BMP180;5346;48.766;8.674;2023-01-30T03:34:40;94147.00;;;-4.10
10598;BMP180;5346;48.766;8.674;2023-01-30T03:37:14;94191.00;;;-3.90
10598;BMP180;5346;48.766;8.674;2023-01-30T03:39:41;94209.00;;;-3.90
10598;BMP180;5346;48.766;8.674;2023-01-30T03:42:15;94215.00;;;-3.90
10598;BMP180;5346;48.766;8.674;2023-01-30T03:44:42;94232.00;;;-3.80
10598;BMP180;5346;48.766;8.674;2023-01-30T03:47:15;94159.00;;;-3.80
10598;BMP180;5346;48.766;8.674;2023-01-30T03:49:42;94207.00;;;-3.60
10598;BMP180;5346;48.766;8.674;2023-01-30T03:52:15;94208.00;;;-3.60
10598;BMP180;5346;48.766;8.674;2023-01-30T03:54:42;94215.00;;;-3.50
10598;BMP180;5346;48.766;8.674;2023-01-30T03:57:15;94207.00;;;-3.70
10598;BMP180;5346;48.766;8.674;2023-01-30T03:59:49;94200.00;;;-3.80
10598;BMP180;5346;48.766;8.674;2023-01-30T04:02:22;94217.00;;;-3.90
10598;BMP180;5346;48.766;8.674;2023-01-30T04:04:56;94210.00;;;-3.90
10598;BMP180;5346;48.766;8.674;2023-01-30T04:07:37;94209.00;;;-4.10
10598;BMP180;5346;48.766;8.674;2023-01-30T04:10:10;94234.00;;;-4.20
10598;BMP180;5346;48.766;8.674;2023-01-30T04:12:47;94242.00;;;-4.40
10598;BMP180;5346;48.766;8.674;2023-01-30T04:15:21;94229.00;;;-4.40
10598;BMP180;5346;48.766;8.674;2023-01-30T04:17:55;94229.00;;;-4.40
10598;BMP180;5346;48.766;8.674;2023-01-30T04:20:22;94224.00;;;-4.50
10598;BMP180;5346;48.766;8.674;2023-01-30T04:22:57;94221.00;;;-4.60
10598;BMP180;5346;48.766;8.674;2023-01-30T04:25:31;94234.00;;;-4.80
10598;BMP180;5346;48.766;8.674;2023-01-30T04:27:59;94240.00;;;-4.90
10598;BMP180;5346;48.766;8.674;2023-01-30T04:30:33;94237.00;;;-4.90
10598;BMP180;5346;48.766;8.674;2023-01-30T04:33:07;94234.00;;;-4.90
10598;BMP180;5346;48.766;8.674;2023-01-30T04:35:54;94219.00;;;-5.00
10598;BMP180;5346;48.766;8.674;2023-01-30T04:38:22;94217.00;;;-5.10
10598;BMP180;5346;48.766;8.674;2023-01-30T04:40:57;94214.00;;;-5.20
10598;BMP180;5346;48.766;8.674;2023-01-30T04:43:26;94215.00;;;-5.20
10598;BMP180;5346;48.766;8.674;2023-01-30T04:46:00;94229.00;;;-5.10
10598;BMP180;5346;48.766;8.674;2023-01-30T04:48:34;94247.00;;;-5.10
10598;BMP180;5346;48.766;8.674;2023-01-30T04:51:08;94255.00;;;-4.80
10598;BMP180;5346;48.766;8.674;2023-01-30T04:53:36;94246.00;;;-4.60
10598;BMP180;5346;48.766;8.674;2023-01-30T04:56:09;94237.00;;;-4.40
10598;BMP180;5346;48.766;8.674;2023-01-30T04:58:43;94230.00;;;-4.20
10598;BMP180;5346;48.766;8.674;2023-01-30T05:01:22;94237.00;;;-4.20
10598;BMP180;5346;48.766;8.674;2023-01-30T05:03:53;94225.00;;;-4.30
10598;BMP180;5346;48.766;8.674;2023-01-30T05:06:27;94223.00;;;-4.20
10598;BMP180;5346;48.766;8.674;2023-01-30T05:08:56;94220.00;;;-4.10
10598;BMP180;5346;48.766;8.674;2023-01-30T05:11:30;94209.00;;;-4.00
10598;BMP180;5346;48.766;8.674;2023-01-30T05:13:58;94206.00;;;-3.80
10598;BMP180;5346;48.766;8.674;2023-01-30T05:16:32;94198.00;;;-3.70
10598;BMP180;5346;48.766;8.674;2023-01-30T05:19:06;94187.00;;;-3.50
10598;BMP180;5346;48.766;8.674;2023-01-30T05:21:33;94193.00;;;-3.20
10598;BMP180;5346;48.766;8.674;2023-01-30T05:24:07;94185.00;;;-2.90
10598;BMP180;5346;48.766;8.674;2023-01-30T05:26:35;94192.00;;;-2.70
10598;BMP180;5346;48.766;8.674;2023-01-30T05:29:09;94185.00;;;-2.50
10598;BMP180;5346;48.766;8.674;2023-01-30T05:31:43;94178.00;;;-2.60
10598;BMP180;5346;48.766;8.674;2023-01-30T05:34:17;94183.00;;;-2.30
10598;BMP180;5346;48.766;8.674;2023-01-30T05:36:51;94189.00;;;-2.10
10598;BMP180;5346;48.766;8.674;2023-01-30T05:39:18;94184.00;;;-2.10
10598;BMP180;5346;48.766;8.674;2023-01-30T05:41:46;94188.00;;;-2.10
10598;BMP180;5346;48.766;8.674;2023-01-30T05:44:20;94190.00;;;-2.10
10598;BMP180;5346;48.766;8.674;2023-01-30T05:46:54;94200.00;;;-2.00
10598;BMP180;5346;48.766;8.674;2023-01-30T05:49:22;94188.00;;;-1.90
10598;BMP180;5346;48.766;8.674;2023-01-30T05:51:57;94187.00;;;-1.70
10598;BMP180;5346;48.766;8.674;2023-01-30T05:54:32;94181.00;;;-1.70
10598;BMP180;5346;48.766;8.674;2023-01-30T05:57:00;94176.00;;;-1.90
10598;BMP180;5346;48.766;8.674;2023-01-30T05:59:34;94168.00;;;-1.80
10598;BMP180;5346;48.766;8.674;2023-01-30T06:02:18;94171.00;;;-1.60
10598;BMP180;5346;48.766;8.674;2023-01-30T06:04:59;94168.00;;;-1.40
10598;BMP180;5346;48.766;8.674;2023-01-30T06:07:33;94167.00;;;-1.30
10598;BMP180;5346;48.766;8.674;2023-01-30T06:10:08;94166.00;;;-1.00
10598;BMP180;5346;48.766;8.674;2023-01-30T06:12:43;94179.00;;;-0.90
10598;BMP180;5346;48.766;8.674;2023-01-30T06:15:11;94158.00;;;-0.80
10598;BMP180;5346;48.766;8.674;2023-01-30T06:17:45;94157.00;;;-0.80
10598;BMP180;5346;48.766;8.674;2023-01-30T06:20:19;94152.00;;;-0.70
10598;BMP180;5346;48.766;8.674;2023-01-30T06:22:53;94158.00;;;-0.70
10598;BMP180;5346;48.766;8.674;2023-01-30T06:25:27;94158.00;;;-0.80
10598;BMP180;5346;48.766;8.674;2023-01-30T06:28:02;94181.00;;;-0.60
10598;BMP180;5346;48.766;8.674;2023-01-30T06:30:29;94160.00;;;-0.70
10598;BMP180;5346;48.766;8.674;2023-01-30T06:33:04;94154.00;;;-0.70
10598;BMP180;5346;48.766;8.674;2023-01-30T06:35:31;94154.00;;;-0.60
10598;BMP180;5346;48.766;8.674;2023-01-30T06:38:06;94150.00;;;-0.60
10598;BMP180;5346;48.766;8.674;2023-01-30T06:40:38;94154.00;;;-0.50
10598;BMP180;5346;48.766;8.674;2023-01-30T06:43:13;94155.00;;;-0.50
10598;BMP180;5346;48.766;8.674;2023-01-30T06:45:48;94156.00;;;-0.30
10598;BMP180;5346;48.766;8.674;2023-01-30T06:48:15;94155.00;;;-0.30
10598;BMP180;5346;48.766;8.674;2023-01-30T06:50:50;94153.00;;;-0.20
10598;BMP180;5346;48.766;8.674;2023-01-30T06:53:18;94143.00;;;-0.20
10598;BMP180;5346;48.766;8.674;2023-01-30T06:55:52;94128.00;;;-0.20
10598;BMP180;5346;48.766;8.674;2023-01-30T06:58:20;94144.00;;;0.00
10598;BMP180;5346;48.766;8.674;2023-01-30T07:00:55;94146.00;;;0.20
10598;BMP180;5346;48.766;8.674;2023-01-30T07:03:30;94157.00;;;0.10
10598;BMP180;5346;48.766;8.674;2023-01-30T07:06:05;94144.00;;;0.20
10598;BMP180;5346;48.766;8.674;2023-01-30T07:08:32;94148.00;;;0.30
10598;BMP180;5346;48.766;8.674;2023-01-30T07:11:07;94166.00;;;0.30
10598;BMP180;5346;48.766;8.674;2023-01-30T07:13:42;94173.00;;;0.30
10598;BMP180;5346;48.766;8.674;2023-01-30T07:16:15;94184.00;;;0.40
10598;BMP180;5346;48.766;8.674;2023-01-30T07:18:44;94182.00;;;0.40
10598;BMP180;5346;48.766;8.674;2023-01-30T07:21:18;94195.00;;;0.40
10598;BMP180;5346;48.766;8.674;2023-01-30T07:23:53;94187.00;;;0.50
10598;BMP180;5346;48.766;8.674;2023-01-30T07:26:26;94200.00;;;0.40
10598;BMP180;5346;48.766;8.674;2023-01-30T07:29:03;94200.00;;;0.40
10598;BMP180;5346;48.766;8.674;2023-01-30T07:31:31;94198.00;;;0.40
10598;BMP180;5346;48.766;8.674;2023-01-30T07:34:05;94197.00;;;0.50
10598;BMP180;5346;48.766;8.674;2023-01-30T07:36:38;94196.00;;;0.60
10598;BMP180;5346;48.766;8.674;2023-01-30T07:39:06;94200.00;;;0.60
10598;BMP180;5346;48.766;8.674;2023-01-30T07:41:42;94210.00;;;0.60
10598;BMP180;5346;48.766;8.674;2023-01-30T07:44:12;94210.00;;;0.60
10598;BMP180;5346;48.766;8.674;2023-01-30T07:46:46;94209.00;;;0.50
10598;BMP180;5346;48.766;8.674;2023-01-30T07:49:21;94214.00;;;0.30
10598;BMP180;5346;48.766;8.674;2023-01-30T07:51:54;94214.00;;;0.50
10598;BMP180;5346;48.766;8.674;2023-01-30T07:54:29;94206.00;;;0.60
10598;BMP180;5346;48.766;8.674;2023-01-30T07:56:56;94201.00;;;0.50
10598;BMP180;5346;48.766;8.674;2023-01-30T07:59:30;94191.00;;;0.40
10598;BMP180;5346;48.766;8.674;2023-01-30T08:01:59;94197.00;;;0.50
10598;BMP180;5346;48.766;8.674;2023-01-30T08:04:40;94195.00;;;0.50
10598;BMP180;5346;48.766;8.674;2023-01-30T08:07:08;94204.00;;;0.60
10598;BMP180;5346;48.766;8.674;2023-01-30T08:09:41;94190.00;;;0.60
10598;BMP180;5346;48.766;8.674;2023-01-30T08:12:09;94200.00;;;0.60
10598;BMP180;5346;48.766;8.674;2023-01-30T08:14:44;94217.00;;;0.70
10598;BMP180;5346;48.766;8.674;2023-01-30T08:17:19;94222.00;;;0.70
10598;BMP180;5346;48.766;8.674;2023-01-30T08:19:47;94235.00;;;0.60
10598;BMP180;5346;48.766;8.674;2023-01-30T08:22:21;94209.00;;;0.60
10598;BMP180;5346;48.766;8.674;2023-01-30T08:24:56;94195.00;;;0.50
10598;BMP180;5346;48.766;8.674;2023-01-30T08:27:23;94205.00;;;0.50
10598;BMP180;5346;48.766;8.674;2023-01-30T08:29:57;94192.00;;;0.70
10598;BMP180;5346;48.766;8.674;2023-01-30T08:32:32;94191.00;;;0.90
10598;BMP180;5346;48.766;8.674;2023-01-30T08:35:00;94189.00;;;0.80
10598;BMP180;5346;48.766;8.674;2023-01-30T08:37:35;94198.00;;;1.10
10598;BMP180;5346;48.766;8.674;2023-01-30T08:40:03;94193.00;;;1.40
10598;BMP180;5346;48.766;8.674;2023-01-30T08:42:38;94195.00;;;1.70
10598;BMP180;5346;48.766;8.674;2023-01-30T08:45:15;94183.00;;;1.80
10598;BMP180;5346;48.766;8.674;2023-01-30T08:47:42;94186.00;;;2.10
10598;BMP180;5346;48.766;8.674;2023-01-30T08:50:16;94171.00;;;2.20
10598;BMP180;5346;48.766;8.674;2023-01-30T08:52:45;94195.00;;;2.80
10598;BMP180;5346;48.766;8.674;2023-01-30T08:55:20;94184.00;;;2.30
10598;BMP180;5346;48.766;8.674;2023-01-30T08:57:55;94192.00;;;1.90
10598;BMP180;5346;48.766;8.674;2023-01-30T09:00:24;94188.00;;;2.60
10598;BMP180;5346;48.766;8.674;2023-01-30T09:02:58;94160.00;;;1.70
10598;BMP180;5346;48.766;8.674;2023-01-30T09:05:39;94165.00;;;2.00
10598;BMP180;5346;48.766;8.674;2023-01-30T09:08:13;94137.00;;;2.00
10598;BMP180;5346;48.766;8.674;2023-01-30T09:10:41;94163.00;;;1.60
10598;BMP180;5346;48.766;8.674;2023-01-30T09:13:15;94146.00;;;1.90
10598;BMP180;5346;48.766;8.674;2023-01-30T09:15:43;94144.00;;;1.90
10598;BMP180;5346;48.766;8.674;2023-01-30T09:18:19;94154.00;;;1.70
10598;BMP180;5346;48.766;8.674;2023-01-30T09:20:46;94166.00;;;1.40
10598;BMP180;5346;48.766;8.674;2023-01-30T09:23:20;94168.00;;;1.20
10598;BMP180;5346;48.766;8.674;2023-01-30T09:25:48;94166.00;;;1.50
10598;BMP180;5346;48.766;8.674;2023-01-30T09:28:22;94182.00;;;1.30
10598;BMP180;5346;48.766;8.674;2023-01-30T09:30:58;94190.00;;;1.40
10598;BMP180;5346;48.766;8.674;2023-01-30T09:33:33;94183.00;;;1.30
10598;BMP180;5346;48.766;8.674;2023-01-30T09:36:00;94180.00;;;1.20
10598;BMP180;5346;48.766;8.674;2023-01-30T09:38:34;94172.00;;;1.20
10598;BMP180;5346;48.766;8.674;2023-01-30T09:41:23;94195.00;;;1.10
10598;BMP180;5346;48.766;8.674;2023-01-30T09:55:09;94157.00;;;1.10
10598;BMP180;5346;48.766;8.674;2023-01-30T09:57:43;94184.00;;;1.20
10598;BMP180;5346;48.766;8.674;2023-01-30T10:00:38;94177.00;;;1.20
10598;BMP180;5346;48.766;8.674;2023-01-30T10:03:28;94155.00;;;1.30
10598;BMP180;5346;48.766;8.674;2023-01-30T10:06:16;94150.00;;;1.40
10598;BMP180;5346;48.766;8.674;2023-01-30T10:09:30;94137.00;;;1.40
10598;BMP180;5346;48.766;8.674;2023-01-30T10:12:43;94157.00;;;1.40
10598;BMP180;5346;48.766;8.674;2023-01-30T10:26:27;94146.00;;;1.50
10598;BMP180;5346;48.766;8.674;2023-01-30T10:29:03;94139.00;;;1.60
10598;BMP180;5346;48.766;8.674;2023-01-30T10:31:45;94140.00;;;1.50
10598;BMP180;5346;48.766;8.674;2023-01-30T10:45:16;94132.00;;;1.20
10598;BMP180;5346;48.766;8.674;2023-01-30T10:48:20;94126.00;;;1.40
10598;BMP180;5346;48.766;8.674;2023-01-30T10:54:42;94117.00;;;1.30
10598;BMP180;5346;48.766;8.674;2023-01-30T10:57:34;94118.00;;;1.40
10598;BMP180;5346;48.766;8.674;2023-01-30T11:03:29;94115.00;;;1.50
10598;BMP180;5346;48.766;8.674;2023-01-30T11:06:16;94105.00;;;1.70
10598;BMP180;5346;48.766;8.674;2023-01-30T11:08:53;94110.00;;;1.70
10598;BMP180;5346;48.766;8.674;2023-01-30T11:14:08;94124.00;;;1.60
10598;BMP180;5346;48.766;8.674;2023-01-30T11:16:49;94142.00;;;1.50
10598;BMP180;5346;48.766;8.674;2023-01-30T11:19:31;94131.00;;;1.40
10598;BMP180;5346;48.766;8.674;2023-01-30T11:22:12;94105.00;;;1.40
10598;BMP180;5346;48.766;8.674;2023-01-30T11:24:47;94112.00;;;1.60
10598;BMP180;5346;48.766;8.674;2023-01-30T11:27:28;94101.00;;;1.60
10598;BMP180;5346;48.766;8.674;2023-01-30T11:32:48;94115.00;;;1.50
10598;BMP180;5346;48.766;8.674;2023-01-30T11:35:27;94106.00;;;1.60
10598;BMP180;5346;48.766;8.674;2023-01-30T11:38:19;94105.00;;;1.60
10598;BMP180;5346;48.766;8.674;2023-01-30T11:40:47;94097.00;;;1.60
10598;BMP180;5346;48.766;8.674;2023-01-30T11:43:24;94090.00;;;1.70
10598;BMP180;5346;48.766;8.674;2023-01-30T11:45:53;94078.00;;;1.60
10598;BMP180;5346;48.766;8.674;2023-01-30T11:48:30;94086.00;;;1.70
10598;BMP180;5346;48.766;8.674;2023-01-30T11:51:22;94101.00;;;1.80
10598;BMP180;5346;48.766;8.674;2023-01-30T11:54:05;94107.00;;;1.80
10598;BMP180;5346;48.766;8.674;2023-01-30T11:56:49;94101.00;;;1.60
10598;BMP180;5346;48.766;8.674;2023-01-30T12:02:26;94090.00;;;1.60
10598;BMP180;5346;48.766;8.674;2023-01-30T12:05:27;94085.00;;;1.50
10598;BMP180;5346;48.766;8.674;2023-01-30T12:08:31;94089.00;;;1.70
10598;BMP180;5346;48.766;8.674;2023-01-30T12:11:44;94091.00;;;1.40
10598;BMP180;5346;48.766;8.674;2023-01-30T12:16:59;94092.00;;;1.70
10598;BMP180;5346;48.766;8.674;2023-01-30T12:19:48;94087.00;;;1.90
10598;BMP180;5346;48.766;8.674;2023-01-30T12:22:55;94088.00;;;1.70
10598;BMP180;5346;48.766;8.674;2023-01-30T12:28:37;94087.00;;;1.90
10598;BMP180;5346;48.766;8.674;2023-01-30T12:34:09;94081.00;;;1.50
10598;BMP180;5346;48.766;8.674;2023-01-30T12:36:52;94091.00;;;1.70
10598;BMP180;5346;48.766;8.674;2023-01-30T12:39:39;94092.00;;;1.50
10598;BMP180;5346;48.766;8.674;2023-01-30T12:45:22;94098.00;;;1.60
10598;BMP180;5346;48.766;8.674;2023-01-30T12:48:29;94086.00;;;1.40
10598;BMP180;5346;48.766;8.674;2023-01-30T12:51:39;94088.00;;;1.40
10598;BMP180;5346;48.766;8.674;2023-01-30T12:57:13;94108.00;;;1.40
10598;BMP180;5346;48.766;8.674;2023-01-30T13:05:20;94113.00;;;1.20
10598;BMP180;5346;48.766;8.674;2023-01-30T13:16:56;94124.00;;;1.00
10598;BMP180;5346;48.766;8.674;2023-01-30T13:20:04;94112.00;;;0.90
10598;BMP180;5346;48.766;8.674;2023-01-30T13:22:39;94124.00;;;0.80
10598;BMP180;5346;48.766;8.674;2023-01-30T13:27:58;94127.00;;;0.90
10598;BMP180;5346;48.766;8.674;2023-01-30T13:30:35;94128.00;;;1.10
10598;BMP180;5346;48.766;8.674;2023-01-30T13:33:13;94121.00;;;1.10
10598;BMP180;5346;48.766;8.674;2023-01-30T13:36:13;94131.00;;;1.20
10598;BMP180;5346;48.766;8.674;2023-01-30T13:39:11;94137.00;;;0.90
10598;BMP180;5346;48.766;8.674;2023-01-30T13:41:44;94129.00;;;0.90
10598;BMP180;5346;48.766;8.674;2023-01-30T13:44:27;94141.00;;;0.80
10598;BMP180;5346;48.766;8.674;2023-01-30T13:47:02;94146.00;;;0.70
10598;BMP180;5346;48.766;8.674;2023-01-30T13:49:49;94154.00;;;0.60
10598;BMP180;5346;48.766;8.674;2023-01-30T13:53:07;94143.00;;;0.60
10598;BMP180;5346;48.766;8.674;2023-01-30T13:55:56;94154.00;;;0.60
10598;BMP180;5346;48.766;8.674;2023-01-30T14:01:17;94166.00;;;0.80
10598;BMP180;5346;48.766;8.674;2023-01-30T14:03:51;94180.00;;;1.00
10598;BMP180;5346;48.766;8.674;2023-01-30T14:06:35;94185.00;;;0.90
10598;BMP180;5346;48.766;8.674;2023-01-30T14:09:25;94165.00;;;0.60
10598;BMP180;5346;48.766;8.674;2023-01-30T14:12:02;94198.00;;;0.50
10598;BMP180;5346;48.766;8.674;2023-01-30T14:14:34;94194.00;;;0.50
10598;BMP180;5346;48.766;8.674;2023-01-30T14:17:15;94199.00;;;0.60
10598;BMP180;5346;48.766;8.674;2023-01-30T14:19:56;94199.00;;;0.50
10598;BMP180;5346;48.766;8.674;2023-01-30T14:22:47;94214.00;;;0.40
10598;BMP180;5346;48.766;8.674;2023-01-30T14:25:30;94208.00;;;0.50
10598;BMP180;5346;48.766;8.674;2023-01-30T14:38:30;94236.00;;;0.30
10598;BMP180;5346;48.766;8.674;2023-01-30T14:43:36;94238.00;;;0.10
10598;BMP180;5346;48.766;8.674;2023-01-30T14:48:52;94248.00;;;0.00
10598;BMP180;5346;48.766;8.674;2023-01-30T14:51:43;94254.00;;;0.20
10598;BMP180;5346;48.766;8.674;2023-01-30T14:54:22;94251.00;;;0.10
10598;BMP180;5346;48.766;8.674;2023-01-30T14:57:18;94245.00;;;0.00
10598;BMP180;5346;48.766;8.674;2023-01-30T15:00:00;94246.00;;;0.10
10598;BMP180;5346;48.766;8.674;2023-01-30T15:02:56;94239.00;;;0.20
10598;BMP180;5346;48.766;8.674;2023-01-30T15:05:44;94231.00;;;0.00
10598;BMP180;5346;48.766;8.674;2023-01-30T15:08:21;94228.00;;;0.20
10598;BMP180;5346;48.766;8.674;2023-01-30T15:14:05;94239.00;;;0.10
10598;BMP180;5346;48.766;8.674;2023-01-30T15:22:10;94280.00;;;0.10
10598;BMP180;5346;48.766;8.674;2023-01-30T15:33:24;94276.00;;;0.50
10598;BMP180;5346;48.766;8.674;2023-01-30T15:35:59;94294.00;;;0.20
10598;BMP180;5346;48.766;8.674;2023-01-30T15:38:34;94295.00;;;0.20
10598;BMP180;5346;48.766;8.674;2023-01-30T15:41:04;94308.00;;;0.20
10598;BMP180;5346;48.766;8.674;2023-01-30T15:46:30;94302.00;;;0.20
10598;BMP180;5346;48.766;8.674;2023-01-30T15:52:02;94305.00;;;0.30
10598;BMP180;5346;48.766;8.674;2023-01-30T15:54:36;94310.00;;;0.20
10598;BMP180;5346;48.766;8.674;2023-01-30T15:57:32;94322.00;;;0.20
10598;BMP180;5346;48.766;8.674;2023-01-30T16:00:01;94324.00;;;0.20
10598;BMP180;5346;48.766;8.674;2023-01-30T16:02:36;94328.00;;;0.40
10598;BMP180;5346;48.766;8.674;2023-01-30T16:05:14;94325.00;;;0.30
10598;BMP180;5346;48.766;8.674;2023-01-30T16:07:57;94331.00;;;0.20
10598;BMP180;5346;48.766;8.674;2023-01-30T16:10:29;94333.00;;;0.20
10598;BMP180;5346;48.766;8.674;2023-01-30T16:13:03;94331.00;;;0.20
10598;BMP180;5346;48.766;8.674;2023-01-30T16:15:39;94328.00;;;0.30
10598;BMP180;5346;48.766;8.674;2023-01-30T16:20:52;94344.00;;;0.20
10598;BMP180;5346;48.766;8.674;2023-01-30T16:24:01;94351.00;;;0.00
10598;BMP180;5346;48.766;8.674;2023-01-30T16:26:39;94361.00;;;0.10
10598;BMP180;5346;48.766;8.674;2023-01-30T16:29:16;94365.00;;;0.20
10598;BMP180;5346;48.766;8.674;2023-01-30T16:31:52;94389.00;;;0.30
10598;BMP180;5346;48.766;8.674;2023-01-30T16:34:34;94392.00;;;0.30
10598;BMP180;5346;48.766;8.674;2023-01-30T16:40:13;94399.00;;;0.30
10598;BMP180;5346;48.766;8.674;2023-01-30T16:43:12;94396.00;;;0.20
10598;BMP180;5346;48.766;8.674;2023-01-30T16:51:19;94397.00;;;0.20
10598;BMP180;5346;48.766;8.674;2023-01-30T16:54:02;94414.00;;;0.30
10598;BMP180;5346;48.766;8.674;2023-01-30T16:56:32;94408.00;;;0.30
10598;BMP180;5346;48.766;8.674;2023-01-30T16:59:18;94411.00;;;0.50
10598;BMP180;5346;48.766;8.674;2023-01-30T17:01:52;94410.00;;;0.50
10598;BMP180;5346;48.766;8.674;2023-01-30T17:04:30;94404.00;;;0.30
10598;BMP180;5346;48.766;8.674;2023-01-30T17:07:05;94411.00;;;0.30
10598;BMP180;5346;48.766;8.674;2023-01-30T17:09:45;94417.00;;;0.30
10598;BMP180;5346;48.766;8.674;2023-01-30T17:12:37;94420.00;;;0.40
10598;BMP180;5346;48.766;8.674;2023-01-30T17:17:47;94425.00;;;0.30
10598;BMP180;5346;48.766;8.674;2023-01-30T17:20:15;94441.00;;;0.40
10598;BMP180;5346;48.766;8.674;2023-01-30T17:22:49;94435.00;;;0.30
10598;BMP180;5346;48.766;8.674;2023-01-30T17:25:30;94438.00;;;0.40
10598;BMP180;5346;48.766;8.674;2023-01-30T17:27:59;94429.00;;;0.40
10598;BMP180;5346;48.766;8.674;2023-01-30T17:30:33;94437.00;;;0.50
10598;BMP180;5346;48.766;8.674;2023-01-30T17:33:07;94434.00;;;0.40
10598;BMP180;5346;48.766;8.674;2023-01-30T17:35:44;94437.00;;;0.50
10598;BMP180;5346;48.766;8.674;2023-01-30T17:38:17;94437.00;;;0.40
10598;BMP180;5346;48.766;8.674;2023-01-30T17:40:52;94448.00;;;0.40
10598;BMP180;5346;48.766;8.674;2023-01-30T17:43:26;94444.00;;;0.40
10598;BMP180;5346;48.766;8.674;2023-01-30T17:45:54;94435.00;;;0.50
10598;BMP180;5346;48.766;8.674;2023-01-30T17:48:27;94441.00;;;0.40
10598;BMP180;5346;48.766;8.674;2023-01-30T17:50:55;94460.00;;;0.30
10598;BMP180;5346;48.766;8.674;2023-01-30T17:53:28;94472.00;;;0.40
10598;BMP180;5346;48.766;8.674;2023-01-30T17:56:03;94471.00;;;0.40
10598;BMP180;5346;48.766;8.674;2023-01-30T17:58:30;94472.00;;;0.40
10598;BMP180;5346;48.766;8.674;2023-01-30T18:01:05;94478.00;;;0.50